GOSP

Podor Airport

Podor, Senegal
METAR GOSP 200600Z 36002KT CAVOK 23/06 Q1009
Observed Flight Rules
Feb-20 @ 06:00 UTC (2 hours ago) Visual Flight Rules
Wind Visibility Clouds
360° at 2 knots 10,000+ meters
  • Clear skies
Temperatures Readings
Current 23°C / 73°F
Dewpoint 6°C / 43°F
Humidity 33%
Altimeter 29.79" Hg
Pressure 1009 hPa
Elevation 7
METAR GOSP 200600Z 36002KT CAVOK 23/06 Q1009
Observed Flight Rules
Feb-20 @ 06:00 UTC
(2 hours ago)
VFR
Wind Visibility
360° at 2 knots 10,000+ meters
Clouds
  • Clear skies
Temperature Dewpoint
23°C / 73°F 6°C / 43°F
Humidity Altimeter Pressure
33% 29.79" Hg 1009 hPa